Main page
METAR-TAF:

METAR-TAF

Airports :

Cassidy International Airport

Kiritimati, Kiribati

latitude: 01-59N, longitude: 157-29W, elevation: 3 m

Current weather observation

The report was made 30 minutes ago, at 14:00 UTC
Wind 5 kt from the East
Temperature 27°C
Humidity 84%
Pressure 1008 hPa
Visibility 10 km or more
Few clouds at a height of 2000 ft

METAR: PLCH 221400Z 10005KT 9999 FEW020 27/24 Q1008

Time: 04:30 (14:30 UTC)

Forecast

The report was made 3 hours and 13 minutes ago, at 11:17 UTC
Forecast valid from 22 at 12 UTC to 23 at 12 UTC
Wind 6 kt from the East
Visibility 10 km or more
Scattered clouds at a height of 2000 ft

TAF: PLCH 221117Z 2212/2312 10006KT 9999 SCT020

Weather observations and forecasts of more than 4000 airports (METAR and TAF reports).

The available stations are represented by yellow and red dots on the map.

Hover mouse over dot to see the name of the station.

Then click to see weather observations and forecasts.

To change the map : click on the green buttons with a black cross to zoom in, on the green button with a dash to zoom out, or on the green arrows for adjacent maps.


METAR-TAF: